Time;durP1;ratioP1;P1;durP2;ratioP2;P2;SDS_P1;SDS_P2;PMS_P1;PMS_P2;Temp;Humidity;BMP_temperature;BMP_pressure;BME280_temperature;BME280_humidity;BME280_pressure;Samples;Min_cycle;Max_cycle;Signal;HPM_P1;HPM_P2
2021/04/16 00:02:14;;;;;;;4.73;3.30;;;;;;;;;;4976554;28;20282;-81
2021/04/16 00:04:40;;;;;;;4.97;3.17;;;;;;;;;;4976491;28;20282;-81
2021/04/16 00:07:06;;;;;;;5.73;3.23;;;;;;;;;;4976931;28;20780;-81
2021/04/16 00:09:32;;;;;;;5.77;3.37;;;;;;;;;;4976365;28;20200;-81
2021/04/16 00:11:58;;;;;;;5.07;3.30;;;;;;;;;;4976657;28;20215;-82
2021/04/16 00:14:24;;;;;;;5.83;3.57;;;;;;;;;;4976185;28;20193;-81
2021/04/16 00:16:50;;;;;;;4.23;3.07;;;;;;;;;;4976611;28;20188;-81
2021/04/16 00:19:16;;;;;;;4.97;3.50;;;;;;;;;;4976014;28;20314;-81
2021/04/16 00:21:42;;;;;;;5.17;3.30;;;;;;;;;;4976291;28;20223;-82
2021/04/16 00:24:09;;;;;;;6.57;3.30;;;;;;;;;;4975851;28;20183;-81
2021/04/16 00:26:35;;;;;;;4.47;3.20;;;;;;;;;;4976290;28;20219;-81
2021/04/16 00:29:01;;;;;;;4.70;3.00;;;;;;;;;;4976156;28;20228;-82
2021/04/16 00:31:29;;;;;;;4.67;3.30;;;;;;;;;;4976255;28;20192;-82
2021/04/16 00:33:55;;;;;;;9.00;3.43;;;;;;;;;;4976019;28;20187;-81
2021/04/16 00:36:21;;;;;;;4.27;3.07;;;;;;;;;;4976140;28;20609;-82
2021/04/16 00:38:47;;;;;;;7.07;3.27;;;;;;;;;;4975529;28;20706;-82
2021/04/16 00:41:14;;;;;;;7.13;3.47;;;;;;;;;;4975759;28;20562;-81
2021/04/16 00:43:40;;;;;;;6.73;3.63;;;;;;;;;;4976052;28;20180;-82
2021/04/16 00:46:12;;;;;;;6.03;3.43;;;;;;;;;;4976522;28;20187;-82
2021/04/16 00:48:53;;;;;;;5.83;3.40;;;;;;;;;;4992357;28;20192;-82
2021/04/16 00:51:21;;;;;;;7.67;3.60;;;;;;;;;;4975465;28;20180;-79
2021/04/16 00:53:48;;;;;;;5.87;3.20;;;;;;;;;;4959410;28;20207;-80
2021/04/16 00:56:14;;;;;;;7.33;3.47;;;;;;;;;;4975249;28;20187;-80
2021/04/16 00:58:40;;;;;;;4.20;3.17;;;;;;;;;;4975121;28;20231;-79
2021/04/16 01:01:06;;;;;;;5.57;3.43;;;;;;;;;;4975199;28;20222;-78
2021/04/16 01:03:33;;;;;;;4.93;3.07;;;;;;;;;;4975068;28;20242;-80
2021/04/16 01:06:00;;;;;;;6.07;3.50;;;;;;;;;;4975217;28;20188;-80
2021/04/16 01:08:26;;;;;;;8.47;3.23;;;;;;;;;;4975135;28;20204;-79
2021/04/16 01:10:52;;;;;;;4.40;3.13;;;;;;;;;;4975107;28;20196;-80
2021/04/16 01:13:19;;;;;;;5.33;3.27;;;;;;;;;;4975087;28;20204;-80
2021/04/16 01:15:52;;;;;;;5.57;3.30;;;;;;;;;;4975435;28;20183;-77
2021/04/16 01:18:19;;;;;;;5.80;3.47;;;;;;;;;;4976109;28;20204;-77
2021/04/16 01:20:45;;;;;;;6.17;3.47;;;;;;;;;;4974914;28;20689;-77
2021/04/16 01:23:11;;;;;;;4.97;3.30;;;;;;;;;;4975093;28;20195;-77
2021/04/16 01:25:37;;;;;;;8.93;3.80;;;;;;;;;;4991028;28;20187;-77
2021/04/16 01:28:04;;;;;;;5.00;3.50;;;;;;;;;;4991165;28;20177;-77
2021/04/16 01:30:31;;;;;;;5.87;3.63;;;;;;;;;;4974992;28;20587;-76
2021/04/16 01:32:57;;;;;;;8.37;3.87;;;;;;;;;;4974899;28;20219;-78
2021/04/16 01:35:34;;;;;;;6.23;3.40;;;;;;;;;;4974841;28;20253;-76
2021/04/16 01:38:00;;;;;;;5.73;3.57;;;;;;;;;;4974942;28;20183;-78
2021/04/16 01:40:26;;;;;;;5.03;3.60;;;;;;;;;;4974792;28;20306;-77
2021/04/16 01:42:52;;;;;;;5.03;3.33;;;;;;;;;;4974834;28;20242;-76
2021/04/16 01:45:23;;;;;;;5.53;3.07;;;;;;;;;;4974724;28;20177;-77
2021/04/16 01:47:59;;;;;;;5.97;3.50;;;;;;;;;;4975070;28;20199;-77
2021/04/16 01:50:25;;;;;;;6.67;3.40;;;;;;;;;;4976915;28;20255;-76
2021/04/16 01:52:51;;;;;;;6.47;3.63;;;;;;;;;;4978258;28;20184;-78
2021/04/16 01:55:17;;;;;;;5.63;3.37;;;;;;;;;;4978172;28;20198;-77
2021/04/16 01:57:43;;;;;;;5.30;3.70;;;;;;;;;;4978256;28;20180;-77
2021/04/16 02:00:13;;;;;;;6.87;3.67;;;;;;;;;;4978089;28;20244;-78
2021/04/16 02:02:39;;;;;;;5.87;3.97;;;;;;;;;;4978100;28;20184;-78
2021/04/16 02:05:05;;;;;;;6.63;3.60;;;;;;;;;;4978088;28;20180;-80
2021/04/16 02:07:31;;;;;;;8.27;4.17;;;;;;;;;;4978082;28;20271;-79
2021/04/16 02:09:57;;;;;;;7.40;4.00;;;;;;;;;;4978326;28;20313;-79
2021/04/16 02:12:24;;;;;;;6.47;3.70;;;;;;;;;;4994214;28;20279;-80
2021/04/16 02:14:50;;;;;;;4.83;3.67;;;;;;;;;;4977991;28;20199;-80
2021/04/16 02:17:18;;;;;;;4.40;3.60;;;;;;;;;;4977937;28;20637;-80
2021/04/16 02:19:44;;;;;;;5.93;3.10;;;;;;;;;;4977908;28;20219;-79
2021/04/16 02:22:14;;;;;;;4.90;3.47;;;;;;;;;;4977862;28;20183;-79
2021/04/16 02:24:40;;;;;;;6.40;3.97;;;;;;;;;;4977538;28;20177;-79
2021/04/16 02:27:06;;;;;;;5.70;3.40;;;;;;;;;;4978110;28;20177;-79
2021/04/16 02:29:32;;;;;;;8.20;3.80;;;;;;;;;;4993827;28;20207;-80
2021/04/16 02:31:58;;;;;;;8.13;3.93;;;;;;;;;;4977645;28;20674;-80
2021/04/16 02:34:25;;;;;;;6.83;3.70;;;;;;;;;;4977326;28;20219;-79
2021/04/16 02:36:51;;;;;;;6.20;3.63;;;;;;;;;;4977661;28;20663;-79
2021/04/16 02:39:17;;;;;;;6.17;3.63;;;;;;;;;;4977351;28;20229;-80
2021/04/16 02:41:43;;;;;;;5.43;3.93;;;;;;;;;;4977562;28;20179;-80
2021/04/16 02:44:09;;;;;;;5.43;3.90;;;;;;;;;;4977283;28;20213;-80
2021/04/16 02:46:35;;;;;;;5.10;3.63;;;;;;;;;;4977477;28;20180;-79
2021/04/16 02:49:01;;;;;;;6.83;3.70;;;;;;;;;;4977311;28;20211;-79
2021/04/16 02:51:28;;;;;;;5.53;3.60;;;;;;;;;;4977397;28;20697;-79
2021/04/16 02:53:54;;;;;;;5.90;3.70;;;;;;;;;;4977100;28;20223;-79
2021/04/16 02:56:20;;;;;;;5.70;4.13;;;;;;;;;;4977659;28;20732;-79
2021/04/16 02:58:46;;;;;;;5.30;3.50;;;;;;;;;;4976398;28;20227;-79
2021/04/16 03:01:12;;;;;;;7.83;3.83;;;;;;;;;;4976816;28;20207;-79
2021/04/16 03:03:38;;;;;;;7.40;3.90;;;;;;;;;;4977021;28;20187;-80
2021/04/16 03:06:04;;;;;;;6.00;3.50;;;;;;;;;;4977134;28;20184;-79
2021/04/16 03:08:30;;;;;;;5.23;3.73;;;;;;;;;;4976862;28;20217;-79
2021/04/16 03:10:56;;;;;;;6.53;4.27;;;;;;;;;;4976956;28;20700;-80
2021/04/16 03:13:22;;;;;;;4.57;3.50;;;;;;;;;;4976960;28;20565;-80
2021/04/16 03:15:49;;;;;;;6.07;3.80;;;;;;;;;;4976737;28;20206;-78
2021/04/16 03:18:15;;;;;;;7.70;3.70;;;;;;;;;;4976869;28;20192;-80
2021/04/16 03:20:41;;;;;;;5.97;3.60;;;;;;;;;;4976621;28;20212;-77
2021/04/16 03:23:07;;;;;;;8.57;4.00;;;;;;;;;;4976748;28;20195;-79
2021/04/16 03:25:33;;;;;;;6.43;3.57;;;;;;;;;;4976331;28;20547;-79
2021/04/16 03:27:59;;;;;;;8.00;4.03;;;;;;;;;;4976689;28;20184;-79
2021/04/16 03:30:25;;;;;;;4.97;3.73;;;;;;;;;;4976525;28;20241;-79
2021/04/16 03:32:51;;;;;;;5.93;3.87;;;;;;;;;;4976665;28;20630;-79
2021/04/16 03:35:17;;;;;;;6.50;3.70;;;;;;;;;;4976105;28;20195;-80
2021/04/16 03:37:43;;;;;;;9.43;3.97;;;;;;;;;;4976497;28;20620;-80
2021/04/16 03:40:10;;;;;;;5.70;3.87;;;;;;;;;;4976186;28;20222;-79
2021/04/16 03:42:36;;;;;;;6.17;3.90;;;;;;;;;;4976431;28;20180;-78
2021/04/16 03:45:03;;;;;;;5.87;3.93;;;;;;;;;;4976139;28;20241;-78
2021/04/16 03:47:29;;;;;;;5.67;3.70;;;;;;;;;;4976329;28;20207;-80
2021/04/16 03:49:55;;;;;;;7.57;3.87;;;;;;;;;;4976038;28;20212;-80
2021/04/16 03:52:25;;;;;;;8.10;4.60;;;;;;;;;;4976164;28;20190;-80
2021/04/16 03:54:51;;;;;;;6.00;4.00;;;;;;;;;;4975982;28;20218;-79
2021/04/16 03:57:17;;;;;;;6.77;4.37;;;;;;;;;;4976135;28;20182;-79
2021/04/16 03:59:43;;;;;;;8.23;3.93;;;;;;;;;;4976004;28;20208;-80
2021/04/16 04:02:09;;;;;;;6.53;4.20;;;;;;;;;;4976044;28;20186;-80
2021/04/16 04:04:35;;;;;;;6.30;4.00;;;;;;;;;;4975806;28;20186;-80
2021/04/16 04:07:01;;;;;;;6.97;4.73;;;;;;;;;;4975896;28;20274;-80
2021/04/16 04:09:27;;;;;;;9.20;4.17;;;;;;;;;;4975953;28;20208;-80
2021/04/16 04:11:53;;;;;;;6.93;4.00;;;;;;;;;;4975207;28;20208;-80
2021/04/16 04:14:20;;;;;;;8.37;4.63;;;;;;;;;;4975656;28;20653;-80
2021/04/16 04:16:56;;;;;;;9.40;4.87;;;;;;;;;;4975816;28;20242;-79
2021/04/16 04:19:22;;;;;;;6.73;4.33;;;;;;;;;;4975707;28;20212;-79
2021/04/16 04:21:49;;;;;;;7.37;4.60;;;;;;;;;;4975667;28;20321;-80
2021/04/16 04:24:15;;;;;;;7.23;4.93;;;;;;;;;;4975503;28;20733;-80
2021/04/16 04:26:41;;;;;;;8.50;5.30;;;;;;;;;;4975671;28;20180;-80
2021/04/16 04:29:07;;;;;;;10.37;5.50;;;;;;;;;;4975578;28;20291;-79
2021/04/16 04:31:33;;;;;;;8.30;5.47;;;;;;;;;;4975586;28;20184;-80
2021/04/16 04:33:59;;;;;;;7.27;4.93;;;;;;;;;;4975337;28;20270;-79
2021/04/16 04:36:25;;;;;;;6.93;4.90;;;;;;;;;;4975300;28;20267;-80
2021/04/16 04:38:52;;;;;;;6.77;5.13;;;;;;;;;;4975423;28;20248;-80
2021/04/16 04:41:18;;;;;;;6.40;5.10;;;;;;;;;;4975523;28;20184;-80
2021/04/16 04:43:44;;;;;;;7.70;5.20;;;;;;;;;;4975270;28;20241;-80
2021/04/16 04:46:10;;;;;;;9.77;5.03;;;;;;;;;;4975428;28;20275;-80
2021/04/16 04:48:36;;;;;;;10.87;5.07;;;;;;;;;;4975270;28;20183;-80
2021/04/16 04:51:02;;;;;;;8.57;5.30;;;;;;;;;;4969704;28;20531;-80
2021/04/16 04:53:29;;;;;;;9.63;5.47;;;;;;;;;;4967378;28;20215;-81
2021/04/16 04:55:55;;;;;;;8.07;5.30;;;;;;;;;;4956081;28;20176;-80
2021/04/16 04:58:21;;;;;;;9.90;5.70;;;;;;;;;;4955895;28;20184;-81
2021/04/16 05:00:47;;;;;;;7.43;5.40;;;;;;;;;;4955874;28;20211;-82
2021/04/16 05:03:13;;;;;;;6.73;5.03;;;;;;;;;;4955800;28;20186;-80
2021/04/16 05:05:39;;;;;;;7.90;5.23;;;;;;;;;;4956071;28;20203;-79
2021/04/16 05:08:06;;;;;;;10.40;5.53;;;;;;;;;;4956433;28;20636;-81
2021/04/16 05:10:32;;;;;;;8.50;5.50;;;;;;;;;;4956300;28;20677;-80
2021/04/16 05:12:58;;;;;;;9.23;5.50;;;;;;;;;;4955912;28;20313;-81
2021/04/16 05:15:24;;;;;;;6.90;5.47;;;;;;;;;;4955711;28;20185;-82
2021/04/16 05:17:50;;;;;;;11.20;5.33;;;;;;;;;;4956160;28;20192;-82
2021/04/16 05:20:16;;;;;;;7.07;4.60;;;;;;;;;;4956070;28;20224;-81
2021/04/16 05:22:43;;;;;;;7.47;4.77;;;;;;;;;;4955931;28;20188;-81
2021/04/16 05:25:09;;;;;;;7.67;5.10;;;;;;;;;;4959171;28;20231;-81
2021/04/16 05:27:35;;;;;;;5.80;4.73;;;;;;;;;;4959880;28;20271;-81
2021/04/16 05:30:01;;;;;;;7.23;4.60;;;;;;;;;;4959648;28;20857;-82
2021/04/16 05:32:27;;;;;;;6.83;4.90;;;;;;;;;;4959664;28;20198;-82
2021/04/16 05:34:53;;;;;;;7.07;4.83;;;;;;;;;;4959611;28;20234;-82
2021/04/16 05:37:19;;;;;;;8.97;5.00;;;;;;;;;;4959690;28;20185;-78
2021/04/16 05:39:45;;;;;;;10.70;5.20;;;;;;;;;;4975104;28;20222;-74
2021/04/16 05:42:11;;;;;;;9.33;4.77;;;;;;;;;;4959381;28;20219;-77
2021/04/16 05:44:37;;;;;;;7.73;5.07;;;;;;;;;;4959008;28;20204;-76
2021/04/16 05:47:04;;;;;;;7.67;5.07;;;;;;;;;;4959361;28;20208;-81
2021/04/16 05:49:30;;;;;;;6.83;4.83;;;;;;;;;;4959827;28;20295;-79
2021/04/16 05:51:56;;;;;;;7.67;5.33;;;;;;;;;;4983008;28;20216;-80
2021/04/16 05:54:22;;;;;;;9.13;5.37;;;;;;;;;;4978575;28;20275;-80
2021/04/16 05:56:48;;;;;;;8.63;5.20;;;;;;;;;;4978344;28;20219;-80
2021/04/16 05:59:14;;;;;;;6.80;4.27;;;;;;;;;;4978189;28;20975;-78
2021/04/16 06:01:40;;;;;;;7.83;4.60;;;;;;;;;;4982459;28;20184;-81
2021/04/16 06:04:06;;;;;;;7.23;4.10;;;;;;;;;;4995152;28;20176;-76
2021/04/16 06:06:32;;;;;;;7.27;4.37;;;;;;;;;;4987557;28;20207;-77
2021/04/16 06:08:58;;;;;;;9.13;4.63;;;;;;;;;;4975671;28;20277;-76
2021/04/16 06:11:25;;;;;;;8.53;4.87;;;;;;;;;;4985108;28;20189;-76
2021/04/16 06:13:51;;;;;;;12.23;5.57;;;;;;;;;;4973936;28;20693;-77
2021/04/16 06:16:18;;;;;;;8.30;4.43;;;;;;;;;;4980600;28;20183;-76
2021/04/16 06:18:44;;;;;;;6.57;4.60;;;;;;;;;;4980898;28;20185;-75
2021/04/16 06:21:11;;;;;;;10.37;4.50;;;;;;;;;;4974632;28;20185;-76
2021/04/16 06:23:37;;;;;;;7.10;4.50;;;;;;;;;;4973707;28;20204;-77
2021/04/16 06:26:03;;;;;;;5.53;4.23;;;;;;;;;;5005284;28;20184;-75
2021/04/16 06:28:29;;;;;;;9.07;4.87;;;;;;;;;;4993785;28;20555;-74
2021/04/16 06:30:55;;;;;;;9.30;4.57;;;;;;;;;;5013361;28;20536;-76
2021/04/16 06:33:22;;;;;;;12.87;4.60;;;;;;;;;;5012735;28;20545;-75
2021/04/16 06:35:50;;;;;;;7.87;4.33;;;;;;;;;;5012191;28;20289;-75
2021/04/16 06:38:17;;;;;;;5.10;4.37;;;;;;;;;;5013231;28;20188;-75
2021/04/16 06:40:44;;;;;;;7.30;4.43;;;;;;;;;;5011432;28;20245;-75
2021/04/16 06:43:10;;;;;;;9.67;4.93;;;;;;;;;;5011114;28;20345;-76
2021/04/16 06:45:36;;;;;;;6.17;4.10;;;;;;;;;;5011500;28;20692;-76
2021/04/16 06:48:03;;;;;;;8.63;4.03;;;;;;;;;;5011127;28;20187;-76
2021/04/16 06:50:31;;;;;;;8.53;4.40;;;;;;;;;;5011131;28;20201;-78
2021/04/16 06:53:20;;;;;;;8.40;4.30;;;;;;;;;;5010868;28;20190;-75
2021/04/16 06:55:49;;;;;;;9.97;4.13;;;;;;;;;;5003055;28;20203;-76
2021/04/16 06:58:17;;;;;;;8.13;4.43;;;;;;;;;;5001225;28;20663;-76
2021/04/16 07:00:46;;;;;;;6.60;4.03;;;;;;;;;;5002034;28;20685;-76
2021/04/16 07:03:16;;;;;;;6.17;4.20;;;;;;;;;;5007880;28;20208;-75
2021/04/16 07:06:05;;;;;;;7.37;4.40;;;;;;;;;;4996302;28;20180;-76
2021/04/16 07:08:41;;;;;;;6.27;3.97;;;;;;;;;;4996973;28;20187;-76
2021/04/16 07:11:20;;;;;;;6.00;3.80;;;;;;;;;;4976408;28;20192;-75
2021/04/16 07:13:46;;;;;;;7.80;3.97;;;;;;;;;;5000892;28;20175;-75
2021/04/16 07:16:12;;;;;;;6.77;3.63;;;;;;;;;;4976836;28;20215;-76
2021/04/16 07:18:38;;;;;;;6.73;4.23;;;;;;;;;;4973375;28;20291;-75
2021/04/16 07:21:05;;;;;;;5.67;4.20;;;;;;;;;;4973342;28;20181;-76
2021/04/16 07:23:31;;;;;;;5.90;4.10;;;;;;;;;;4973509;28;20180;-76
2021/04/16 07:26:08;;;;;;;9.20;3.87;;;;;;;;;;4973497;28;20181;-76
2021/04/16 07:29:04;;;;;;;6.40;4.10;;;;;;;;;;4973616;28;20708;-75
2021/04/16 07:31:36;;;;;;;6.63;3.73;;;;;;;;;;4984356;28;20191;-76
2021/04/16 07:34:02;;;;;;;5.13;3.60;;;;;;;;;;4992412;28;20176;-76
2021/04/16 07:36:28;;;;;;;7.33;3.50;;;;;;;;;;4992623;28;20575;-76
2021/04/16 07:38:59;;;;;;;3.93;3.20;;;;;;;;;;4992403;28;20203;-76
2021/04/16 07:41:26;;;;;;;5.60;3.30;;;;;;;;;;4970441;28;20205;-75
2021/04/16 07:43:52;;;;;;;9.20;3.60;;;;;;;;;;4996826;28;20185;-75
2021/04/16 07:46:27;;;;;;;4.83;3.30;;;;;;;;;;4992930;28;20265;-75
2021/04/16 07:48:54;;;;;;;4.03;3.03;;;;;;;;;;4973043;28;20212;-75
2021/04/16 07:51:30;;;;;;;7.00;3.07;;;;;;;;;;4959245;28;20184;-75
2021/04/16 07:54:01;;;;;;;5.50;3.40;;;;;;;;;;4989164;28;20200;-75
2021/04/16 07:56:27;;;;;;;6.70;2.97;;;;;;;;;;4956786;28;20719;-76
2021/04/16 07:58:53;;;;;;;4.30;2.90;;;;;;;;;;4963215;28;20200;-75
2021/04/16 08:01:25;;;;;;;4.73;2.67;;;;;;;;;;4992714;28;20218;-75
2021/04/16 08:03:52;;;;;;;5.83;3.00;;;;;;;;;;4993745;28;20179;-76
2021/04/16 08:06:37;;;;;;;5.63;3.27;;;;;;;;;;5010319;28;20183;-75
2021/04/16 08:09:05;;;;;;;5.97;3.17;;;;;;;;;;4992001;28;20203;-76
2021/04/16 08:11:31;;;;;;;6.00;3.03;;;;;;;;;;4985602;28;20215;-75
2021/04/16 08:14:03;;;;;;;3.70;2.57;;;;;;;;;;4989815;28;20559;-75
2021/04/16 08:16:36;;;;;;;5.23;2.53;;;;;;;;;;4975794;28;20172;-75
2021/04/16 08:19:12;;;;;;;3.50;2.50;;;;;;;;;;4975545;28;20208;-75
2021/04/16 08:21:49;;;;;;;5.87;3.10;;;;;;;;;;4972497;28;20188;-75
2021/04/16 08:24:24;;;;;;;4.90;2.70;;;;;;;;;;4958305;28;20184;-74
2021/04/16 08:27:09;;;;;;;3.83;2.57;;;;;;;;;;4996028;28;20267;-75
2021/04/16 08:29:47;;;;;;;5.90;2.50;;;;;;;;;;4980590;28;20203;-75
2021/04/16 08:32:16;;;;;;;5.43;2.80;;;;;;;;;;5011192;28;20546;-75
2021/04/16 08:34:44;;;;;;;4.73;2.60;;;;;;;;;;4997555;28;20236;-75
2021/04/16 08:37:11;;;;;;;5.07;3.00;;;;;;;;;;4991315;28;20187;-76
2021/04/16 08:39:41;;;;;;;5.30;2.50;;;;;;;;;;4987028;28;20295;-76
2021/04/16 08:42:07;;;;;;;4.67;3.33;;;;;;;;;;4956230;28;20181;-75
2021/04/16 08:44:34;;;;;;;6.83;3.20;;;;;;;;;;4989481;28;20188;-75
2021/04/16 08:47:01;;;;;;;6.43;4.40;;;;;;;;;;4975291;28;20191;-75
2021/04/16 08:49:31;;;;;;;8.70;5.20;;;;;;;;;;4975303;28;20295;-75
2021/04/16 08:52:00;;;;;;;9.77;5.30;;;;;;;;;;4979495;28;20254;-74
2021/04/16 08:54:27;;;;;;;7.30;4.53;;;;;;;;;;5002868;28;20182;-75
2021/04/16 08:57:14;;;;;;;7.90;4.60;;;;;;;;;;4975131;28;20180;-75
2021/04/16 08:59:52;;;;;;;6.27;3.27;;;;;;;;;;4980346;28;20220;-75
2021/04/16 09:02:19;;;;;;;4.83;2.80;;;;;;;;;;4981500;28;20263;-75
2021/04/16 09:04:46;;;;;;;4.03;3.00;;;;;;;;;;4981222;28;20177;-76
2021/04/16 09:07:29;;;;;;;4.10;2.77;;;;;;;;;;4978212;28;20640;-75
2021/04/16 09:09:56;;;;;;;5.10;3.00;;;;;;;;;;4996319;28;20587;-76
2021/04/16 09:12:40;;;;;;;6.27;3.03;;;;;;;;;;4997506;28;20554;-75
2021/04/16 09:15:19;;;;;;;4.73;2.73;;;;;;;;;;4997446;28;20229;-75
2021/04/16 09:17:54;;;;;;;3.47;2.10;;;;;;;;;;4997513;28;20706;-76
2021/04/16 09:20:23;;;;;;;5.30;2.70;;;;;;;;;;4997223;28;20732;-76
2021/04/16 09:22:52;;;;;;;7.87;2.80;;;;;;;;;;4994341;28;20188;-77
2021/04/16 09:25:31;;;;;;;5.03;2.43;;;;;;;;;;4962167;28;20629;-78
2021/04/16 09:28:16;;;;;;;4.13;2.67;;;;;;;;;;4994234;28;20664;-77
2021/04/16 09:30:42;;;;;;;4.27;2.77;;;;;;;;;;4994581;28;20283;-77
2021/04/16 09:33:21;;;;;;;3.60;2.23;;;;;;;;;;4962269;28;20213;-77
2021/04/16 09:35:49;;;;;;;4.77;2.70;;;;;;;;;;4990453;28;20721;-76
2021/04/16 09:38:24;;;;;;;9.60;2.57;;;;;;;;;;4980715;28;20191;-76
2021/04/16 09:41:09;;;;;;;5.00;2.33;;;;;;;;;;4977849;28;20731;-76
2021/04/16 09:43:35;;;;;;;4.80;2.80;;;;;;;;;;4981102;28;20193;-76
2021/04/16 09:46:01;;;;;;;3.27;2.30;;;;;;;;;;4964743;28;20278;-75
2021/04/16 09:48:47;;;;;;;4.70;1.90;;;;;;;;;;5014151;28;20201;-76
2021/04/16 09:51:13;;;;;;;3.83;2.13;;;;;;;;;;5004511;28;20228;-76
2021/04/16 09:53:39;;;;;;;4.53;2.20;;;;;;;;;;4997225;28;20210;-76
2021/04/16 09:56:09;;;;;;;3.60;2.13;;;;;;;;;;4997263;28;20222;-75
2021/04/16 09:58:38;;;;;;;6.67;2.23;;;;;;;;;;4997359;28;20191;-76
2021/04/16 10:01:20;;;;;;;6.73;2.00;;;;;;;;;;4997321;28;20674;-79
2021/04/16 10:03:58;;;;;;;2.83;2.07;;;;;;;;;;4998417;28;20266;-76
2021/04/16 10:06:35;;;;;;;4.63;2.20;;;;;;;;;;5016857;28;20175;-76
2021/04/16 10:09:01;;;;;;;6.23;2.50;;;;;;;;;;5016754;28;20202;-75
2021/04/16 10:11:27;;;;;;;5.27;2.20;;;;;;;;;;5003928;28;20263;-76
2021/04/16 10:13:53;;;;;;;6.77;2.20;;;;;;;;;;4978353;28;20215;-77
2021/04/16 10:16:22;;;;;;;5.97;2.37;;;;;;;;;;4978253;28;20176;-77
2021/04/16 10:18:48;;;;;;;5.00;1.70;;;;;;;;;;4977856;28;20208;-77
2021/04/16 10:21:14;;;;;;;4.57;2.30;;;;;;;;;;4978009;28;20216;-77
2021/04/16 10:23:41;;;;;;;4.40;1.67;;;;;;;;;;4995466;28;20227;-79
2021/04/16 10:58:42;;;;;;;2.93;1.63;;;;;;;;;;5028900;28;20163;-79
2021/04/16 12:39:34;;;;;;;2.07;1.60;;;;;;;;;;5023306;28;20311;-76
2021/04/16 12:42:02;;;;;;;2.43;1.63;;;;;;;;;;5010935;28;20176;-76
2021/04/16 12:44:31;;;;;;;2.30;1.73;;;;;;;;;;5011192;28;20180;-76
2021/04/16 12:47:01;;;;;;;2.50;1.70;;;;;;;;;;5027598;28;20180;-76
2021/04/16 12:49:28;;;;;;;3.27;1.83;;;;;;;;;;5027294;28;20192;-76
2021/04/16 12:51:54;;;;;;;2.33;1.43;;;;;;;;;;5010846;28;20179;-76
2021/04/16 12:54:20;;;;;;;4.47;2.17;;;;;;;;;;5027472;28;20198;-76
2021/04/16 12:56:48;;;;;;;2.60;1.60;;;;;;;;;;5027351;28;20183;-75
2021/04/16 12:59:18;;;;;;;2.47;1.90;;;;;;;;;;5010897;28;20222;-75
2021/04/16 13:01:44;;;;;;;2.53;1.60;;;;;;;;;;5027516;28;20184;-76
2021/04/16 13:04:11;;;;;;;4.53;1.77;;;;;;;;;;5027046;28;20228;-76
2021/04/16 13:06:41;;;;;;;2.57;1.80;;;;;;;;;;5027189;28;20650;-76
2021/04/16 13:09:07;;;;;;;3.10;1.50;;;;;;;;;;5010998;28;20199;-75
2021/04/16 13:11:33;;;;;;;3.70;1.70;;;;;;;;;;5027263;28;20261;-77
2021/04/16 13:13:59;;;;;;;3.23;1.83;;;;;;;;;;5027112;28;20642;-76
2021/04/16 13:16:25;;;;;;;2.77;1.50;;;;;;;;;;5027058;28;20172;-76
2021/04/16 13:18:52;;;;;;;3.43;1.50;;;;;;;;;;5026820;28;20242;-76
2021/04/16 13:21:34;;;;;;;3.17;1.60;;;;;;;;;;5027184;28;20176;-76
2021/04/16 13:24:00;;;;;;;2.63;1.60;;;;;;;;;;5026864;28;20230;-76
2021/04/16 13:26:26;;;;;;;2.93;1.50;;;;;;;;;;5010479;28;20210;-76
2021/04/16 13:28:53;;;;;;;2.80;1.67;;;;;;;;;;5011619;28;20218;-75
2021/04/16 13:31:19;;;;;;;2.47;1.73;;;;;;;;;;5027025;28;20179;-75
2021/04/16 13:33:45;;;;;;;5.47;1.90;;;;;;;;;;5026967;28;20176;-76
2021/04/16 13:36:18;;;;;;;7.43;1.80;;;;;;;;;;5026620;28;20636;-75
2021/04/16 13:38:44;;;;;;;2.80;1.73;;;;;;;;;;5026840;28;20196;-76
2021/04/16 13:41:10;;;;;;;2.93;1.90;;;;;;;;;;5027705;28;20508;-77
2021/04/16 13:43:36;;;;;;;2.03;1.60;;;;;;;;;;5011367;28;20188;-77
2021/04/16 13:46:03;;;;;;;1.73;1.50;;;;;;;;;;5013527;28;20203;-76
2021/04/16 13:48:29;;;;;;;2.77;1.40;;;;;;;;;;5014550;28;20566;-77
2021/04/16 13:50:55;;;;;;;2.43;1.47;;;;;;;;;;5015588;28;20191;-76
2021/04/16 13:53:21;;;;;;;2.10;1.70;;;;;;;;;;5031612;28;20202;-77
2021/04/16 13:55:47;;;;;;;1.67;1.47;;;;;;;;;;5015338;28;20597;-76
2021/04/16 13:58:13;;;;;;;2.20;1.67;;;;;;;;;;5030686;28;20180;-77
2021/04/16 14:00:39;;;;;;;2.13;1.50;;;;;;;;;;5031105;28;20226;-78
2021/04/16 14:03:27;;;;;;;2.17;1.80;;;;;;;;;;5030531;28;20228;-76
2021/04/16 14:05:53;;;;;;;2.33;1.60;;;;;;;;;;5030873;28;20674;-78
2021/04/16 14:08:30;;;;;;;2.50;1.60;;;;;;;;;;5014813;28;20563;-77
2021/04/16 14:10:56;;;;;;;1.90;1.53;;;;;;;;;;5031326;28;20233;-77
2021/04/16 14:13:22;;;;;;;4.00;1.87;;;;;;;;;;5015077;28;20187;-77
2021/04/16 14:15:48;;;;;;;3.27;1.67;;;;;;;;;;5030967;28;20180;-77
2021/04/16 14:18:21;;;;;;;4.67;1.50;;;;;;;;;;5030283;28;20183;-78
2021/04/16 14:20:47;;;;;;;5.13;1.70;;;;;;;;;;5013752;28;20215;-77
2021/04/16 14:23:14;;;;;;;4.00;1.87;;;;;;;;;;5029828;28;20231;-77
2021/04/16 14:25:40;;;;;;;1.80;1.57;;;;;;;;;;5013766;28;20178;-79
2021/04/16 14:28:07;;;;;;;3.40;1.80;;;;;;;;;;5013685;28;20179;-77
2021/04/16 14:30:34;;;;;;;3.30;1.67;;;;;;;;;;5030107;28;20225;-77
2021/04/16 14:33:00;;;;;;;3.03;1.70;;;;;;;;;;5013429;28;20184;-77
2021/04/16 14:35:27;;;;;;;2.37;1.70;;;;;;;;;;5029980;28;20176;-77
2021/04/16 14:37:53;;;;;;;3.03;1.40;;;;;;;;;;5013524;28;20180;-78
2021/04/16 14:40:19;;;;;;;4.10;1.60;;;;;;;;;;5030433;28;20245;-79
2021/04/16 14:42:45;;;;;;;2.53;1.70;;;;;;;;;;5030432;28;20635;-78
2021/04/16 14:45:12;;;;;;;4.10;1.57;;;;;;;;;;5012975;28;20185;-78
2021/04/16 14:47:38;;;;;;;2.00;1.53;;;;;;;;;;5013283;28;20182;-79
2021/04/16 14:50:05;;;;;;;2.53;1.57;;;;;;;;;;5013032;28;20211;-78
2021/04/16 14:52:31;;;;;;;2.50;1.50;;;;;;;;;;5014813;28;20627;-78
2021/04/16 14:54:57;;;;;;;2.23;1.57;;;;;;;;;;5030092;28;20191;-77
2021/04/16 14:57:30;;;;;;;3.30;1.60;;;;;;;;;;5012829;28;20278;-78
2021/04/16 14:59:56;;;;;;;6.87;1.97;;;;;;;;;;5013279;28;20281;-77
2021/04/16 15:02:22;;;;;;;4.40;1.83;;;;;;;;;;5029170;28;20199;-77
2021/04/16 15:04:48;;;;;;;2.23;1.83;;;;;;;;;;5005490;28;20188;-77
2021/04/16 15:07:14;;;;;;;3.67;1.77;;;;;;;;;;5009078;28;20191;-78
2021/04/16 15:09:50;;;;;;;3.30;2.47;;;;;;;;;;5013888;28;20199;-78
2021/04/16 15:12:20;;;;;;;2.67;1.83;;;;;;;;;;5007693;28;20176;-77
2021/04/16 15:14:46;;;;;;;2.60;1.43;;;;;;;;;;5015379;28;20188;-78
2021/04/16 15:17:13;;;;;;;3.27;1.80;;;;;;;;;;4982541;28;20189;-78
2021/04/16 15:19:40;;;;;;;2.83;1.80;;;;;;;;;;4998742;28;20290;-77
2021/04/16 15:22:11;;;;;;;2.10;1.40;;;;;;;;;;5001218;28;20188;-77
2021/04/16 15:24:37;;;;;;;2.17;1.50;;;;;;;;;;4993764;28;20175;-77
2021/04/16 15:27:04;;;;;;;2.00;1.50;;;;;;;;;;5013631;28;20314;-78
2021/04/16 15:29:31;;;;;;;2.80;1.90;;;;;;;;;;4996048;28;20219;-77
2021/04/16 15:31:57;;;;;;;2.33;1.70;;;;;;;;;;4985793;28;20211;-77
2021/04/16 15:47:57;;;;;;;3.77;1.80;;;;;;;;;;5012954;28;20607;-78
2021/04/16 15:50:24;;;;;;;2.17;1.67;;;;;;;;;;5013891;28;20206;-77
2021/04/16 15:52:50;;;;;;;2.57;1.33;;;;;;;;;;5010428;28;20275;-77
2021/04/16 15:55:16;;;;;;;3.83;1.93;;;;;;;;;;4995964;28;20233;-77
2021/04/16 15:57:43;;;;;;;3.07;2.07;;;;;;;;;;5012481;28;20706;-77
2021/04/16 16:00:12;;;;;;;4.33;1.97;;;;;;;;;;5011970;28;20257;-76
2021/04/16 16:02:38;;;;;;;4.33;1.83;;;;;;;;;;5011907;28;20263;-76
2021/04/16 16:05:05;;;;;;;3.07;1.80;;;;;;;;;;5011973;28;20265;-77
2021/04/16 16:07:31;;;;;;;2.87;1.83;;;;;;;;;;5013432;28;20739;-76
2021/04/16 16:09:57;;;;;;;2.43;1.80;;;;;;;;;;5012782;28;20223;-76
2021/04/16 16:12:23;;;;;;;4.83;2.00;;;;;;;;;;5013496;28;20563;-76
2021/04/16 16:14:54;;;;;;;2.40;2.00;;;;;;;;;;4997806;28;20183;-77
2021/04/16 16:17:24;;;;;;;2.33;2.07;;;;;;;;;;4997883;28;20191;-79
2021/04/16 16:19:50;;;;;;;4.50;1.90;;;;;;;;;;4996658;28;20211;-77
2021/04/16 16:22:16;;;;;;;3.40;1.63;;;;;;;;;;4995613;28;20230;-77
2021/04/16 16:24:42;;;;;;;3.80;2.40;;;;;;;;;;5012725;28;20179;-77
2021/04/16 16:27:16;;;;;;;3.10;2.10;;;;;;;;;;5011361;28;20638;-77
2021/04/16 16:29:42;;;;;;;5.37;2.20;;;;;;;;;;4986498;28;20223;-76
2021/04/16 16:32:11;;;;;;;2.77;2.07;;;;;;;;;;4996677;28;20186;-77
2021/04/16 16:34:38;;;;;;;2.60;1.80;;;;;;;;;;4991571;28;20286;-78
2021/04/16 16:37:04;;;;;;;2.20;1.83;;;;;;;;;;4997008;28;20183;-77
2021/04/16 16:39:30;;;;;;;2.90;2.03;;;;;;;;;;4997670;28;20289;-81
2021/04/16 16:41:56;;;;;;;3.63;1.90;;;;;;;;;;4998157;28;20175;-79
2021/04/16 16:44:25;;;;;;;3.13;2.03;;;;;;;;;;5015352;28;20164;-79
2021/04/16 16:46:51;;;;;;;2.40;1.67;;;;;;;;;;4996562;28;20183;-77
2021/04/16 16:49:19;;;;;;;5.03;2.00;;;;;;;;;;5012584;28;20562;-77
2021/04/16 16:51:45;;;;;;;3.50;1.90;;;;;;;;;;5011930;28;20184;-77
2021/04/16 16:54:11;;;;;;;3.07;1.97;;;;;;;;;;5012706;28;20180;-77
2021/04/16 16:56:39;;;;;;;4.53;1.93;;;;;;;;;;4996295;28;20211;-78
2021/04/16 16:59:05;;;;;;;3.17;2.00;;;;;;;;;;4997101;28;20238;-77
2021/04/16 17:01:31;;;;;;;3.70;1.77;;;;;;;;;;4996596;28;20266;-77
2021/04/16 17:03:57;;;;;;;3.77;2.27;;;;;;;;;;5014428;28;20211;-78
2021/04/16 17:06:24;;;;;;;2.53;1.90;;;;;;;;;;5013575;28;20175;-78
2021/04/16 17:08:50;;;;;;;3.60;2.13;;;;;;;;;;4996253;28;20203;-78
2021/04/16 17:11:16;;;;;;;4.50;2.10;;;;;;;;;;5012199;28;20180;-80
2021/04/16 17:13:42;;;;;;;6.60;3.00;;;;;;;;;;5012750;28;20192;-78